createdAt,value
2023-02-27T00:00:32.964Z,5.08
2023-02-27T00:01:35.123Z,5.08
2023-02-27T00:02:36.981Z,5.10
2023-02-27T00:03:38.919Z,5.07
2023-02-27T00:04:40.926Z,5.09
2023-02-27T00:05:42.755Z,5.10
2023-02-27T00:06:44.477Z,5.09
2023-02-27T00:07:46.307Z,5.08
2023-02-27T00:08:48.122Z,5.08
2023-02-27T00:09:49.927Z,5.09
2023-02-27T00:10:51.831Z,5.08
2023-02-27T00:11:53.551Z,5.07
2023-02-27T00:12:55.965Z,5.06
2023-02-27T00:13:57.843Z,5.04
2023-02-27T00:14:59.610Z,5.06
2023-02-27T00:16:01.601Z,5.04
2023-02-27T00:17:03.420Z,5.02
2023-02-27T00:18:05.202Z,5.00
2023-02-27T00:19:07.105Z,5.01
2023-02-27T00:20:13.865Z,5.00
2023-02-27T00:21:15.712Z,4.99
2023-02-27T00:22:17.477Z,4.99
2023-02-27T00:23:19.252Z,4.99
2023-02-27T00:24:22.370Z,4.99
2023-02-27T00:25:24.217Z,5.00
2023-02-27T00:26:26.432Z,4.99
2023-02-27T00:27:28.279Z,4.92
2023-02-27T00:28:30.277Z,4.93
2023-02-27T00:29:32.012Z,4.91
2023-02-27T00:30:34.230Z,4.88
2023-02-27T00:31:36.183Z,4.91
2023-02-27T00:32:38.354Z,4.91
2023-02-27T00:33:40.268Z,4.88
2023-02-27T00:34:42.062Z,4.87
2023-02-27T00:35:43.810Z,4.89
2023-02-27T00:36:45.560Z,4.87
2023-02-27T00:37:47.718Z,4.89
2023-02-27T00:38:49.478Z,4.88
2023-02-27T00:39:51.348Z,4.90
2023-02-27T00:40:53.126Z,4.87
2023-02-27T00:41:54.942Z,4.88
2023-02-27T00:42:56.688Z,4.87
2023-02-27T00:43:58.483Z,4.86
2023-02-27T00:45:00.374Z,4.87
2023-02-27T00:46:02.154Z,4.90
2023-02-27T00:47:03.977Z,4.87
2023-02-27T00:48:05.772Z,4.87
2023-02-27T00:49:07.540Z,4.85
2023-02-27T00:50:10.650Z,4.85
2023-02-27T00:51:13.151Z,4.84
2023-02-27T00:52:14.963Z,4.82
2023-02-27T00:53:17.343Z,4.81
2023-02-27T00:54:19.429Z,4.81
2023-02-27T00:55:21.262Z,4.81
2023-02-27T00:56:23.143Z,4.83
2023-02-27T00:57:25.019Z,4.83
2023-02-27T00:58:26.853Z,4.80
2023-02-27T00:59:28.719Z,4.81
2023-02-27T01:00:30.835Z,4.79
2023-02-27T01:01:32.675Z,4.80
2023-02-27T01:02:35.278Z,4.79
2023-02-27T01:03:37.233Z,4.79
2023-02-27T01:04:39.033Z,4.79
2023-02-27T01:05:40.867Z,4.79
2023-02-27T01:06:42.585Z,4.79
2023-02-27T01:07:44.326Z,4.78
2023-02-27T01:08:46.380Z,4.75
2023-02-27T01:09:48.189Z,4.79
2023-02-27T01:10:49.953Z,4.77
2023-02-27T01:11:52.462Z,4.74
2023-02-27T01:12:54.218Z,4.72
2023-02-27T01:13:56.952Z,4.74
2023-02-27T01:14:58.857Z,4.73
2023-02-27T01:16:00.800Z,4.73
2023-02-27T01:17:03.504Z,4.71
2023-02-27T01:18:05.244Z,4.73
2023-02-27T01:19:07.135Z,4.74
2023-02-27T01:20:11.913Z,4.73
2023-02-27T01:21:13.691Z,4.73
2023-02-27T01:22:15.534Z,4.75
2023-02-27T01:23:17.256Z,4.73
2023-02-27T01:24:19.784Z,4.71
2023-02-27T01:25:21.552Z,4.71
2023-02-27T01:26:23.357Z,4.73
2023-02-27T01:27:25.167Z,4.71
2023-02-27T01:28:27.173Z,4.71
2023-02-27T01:29:28.953Z,4.71
2023-02-27T01:30:30.735Z,4.72
2023-02-27T01:31:32.613Z,4.73
2023-02-27T01:32:34.537Z,4.72
2023-02-27T01:33:36.396Z,4.73
2023-02-27T01:34:38.262Z,4.72
2023-02-27T01:35:40.563Z,4.71
2023-02-27T01:36:42.364Z,4.72
2023-02-27T01:37:44.590Z,4.72
2023-02-27T01:38:46.436Z,4.72
2023-02-27T01:39:48.194Z,4.71
2023-02-27T01:40:50.009Z,4.72
2023-02-27T01:41:52.146Z,4.72
2023-02-27T01:42:54.570Z,4.70
2023-02-27T01:43:59.887Z,4.71
2023-02-27T01:45:30.679Z,4.72
2023-02-27T01:46:34.386Z,4.68
2023-02-27T01:47:43.056Z,4.68
2023-02-27T01:48:45.139Z,4.67
2023-02-27T01:49:46.945Z,4.66
2023-02-27T01:51:03.671Z,4.68
2023-02-27T01:52:11.039Z,4.65
2023-02-27T01:53:14.703Z,4.66
2023-02-27T01:54:22.442Z,4.65
2023-02-27T01:55:27.183Z,4.64
2023-02-27T01:56:32.227Z,4.65
2023-02-27T01:57:36.039Z,4.63
2023-02-27T01:58:38.882Z,4.65
2023-02-27T01:59:43.216Z,4.64
2023-02-27T02:00:46.308Z,4.64
2023-02-27T02:01:48.768Z,4.62
2023-02-27T02:03:45.087Z,4.66
2023-02-27T02:04:48.434Z,4.61
2023-02-27T02:05:53.374Z,4.62
2023-02-27T02:07:04.537Z,4.60
2023-02-27T02:08:07.506Z,4.59
2023-02-27T02:09:11.209Z,4.59
2023-02-27T02:10:16.102Z,4.59
2023-02-27T02:11:20.717Z,4.57
2023-02-27T02:12:28.686Z,4.58
2023-02-27T02:13:31.649Z,4.57
2023-02-27T02:14:33.470Z,4.55
2023-02-27T02:15:41.817Z,4.57
2023-02-27T02:17:11.191Z,4.58
2023-02-27T02:18:36.174Z,4.55
2023-02-27T02:19:55.285Z,4.54
2023-02-27T02:21:03.958Z,4.51
2023-02-27T02:22:40.773Z,4.53
2023-02-27T02:24:10.334Z,4.51
2023-02-27T02:25:56.726Z,4.53
2023-02-27T02:27:18.921Z,4.51
2023-02-27T02:28:57.659Z,4.52
2023-02-27T02:30:08.236Z,4.50
2023-02-27T02:31:50.899Z,4.52
2023-02-27T02:33:12.531Z,4.52
2023-02-27T02:34:51.033Z,4.53
2023-02-27T02:36:23.046Z,4.51
2023-02-27T02:38:14.498Z,4.52
2023-02-27T02:39:43.430Z,4.50
2023-02-27T02:41:13.952Z,4.50
2023-02-27T02:42:22.236Z,4.47
2023-02-27T02:44:11.939Z,4.50
2023-02-27T02:45:27.918Z,4.48
2023-02-27T02:46:47.465Z,4.49
2023-02-27T02:48:33.905Z,4.50
2023-02-27T02:50:13.153Z,4.47
2023-02-27T02:51:36.895Z,4.47
2023-02-27T02:52:51.800Z,4.46
2023-02-27T02:54:01.716Z,4.45
2023-02-27T02:55:35.524Z,4.49
2023-02-27T02:56:52.781Z,4.48
2023-02-27T02:57:59.609Z,4.48
2023-02-27T02:59:36.274Z,4.51
2023-02-27T03:00:51.738Z,4.49
2023-02-27T03:02:03.678Z,4.51
2023-02-27T03:03:25.030Z,4.52
2023-02-27T03:04:42.980Z,4.51
2023-02-27T03:06:14.033Z,4.52
2023-02-27T03:07:34.177Z,4.53
2023-02-27T03:08:50.008Z,4.52
2023-02-27T03:10:32.193Z,4.52
2023-02-27T03:11:40.993Z,4.50
2023-02-27T03:12:52.530Z,4.49
2023-02-27T03:14:06.907Z,4.52
2023-02-27T03:15:39.257Z,4.54
2023-02-27T03:16:48.817Z,4.51
2023-02-27T03:18:06.815Z,4.51
2023-02-27T03:19:25.907Z,4.50
2023-02-27T03:20:45.357Z,4.51
2023-02-27T03:22:05.187Z,4.49
2023-02-27T03:23:16.876Z,4.48
2023-02-27T03:24:32.058Z,4.49
2023-02-27T03:25:35.898Z,4.47
2023-02-27T03:26:44.697Z,4.47
2023-02-27T03:28:13.528Z,4.47
2023-02-27T03:29:26.406Z,4.46
2023-02-27T03:30:56.340Z,4.45
2023-02-27T03:32:13.254Z,4.43
2023-02-27T03:33:27.174Z,4.43
2023-02-27T03:34:41.192Z,4.43
2023-02-27T03:36:03.019Z,4.44
2023-02-27T03:37:38.415Z,4.42
2023-02-27T03:38:51.293Z,4.40
2023-02-27T03:40:12.492Z,4.39
2023-02-27T03:41:47.224Z,4.37
2023-02-27T03:43:28.689Z,4.35
2023-02-27T03:44:52.457Z,4.35
2023-02-27T03:46:16.632Z,4.34
2023-02-27T03:47:18.859Z,4.30
2023-02-27T03:48:21.062Z,4.28
2023-02-27T03:49:23.246Z,4.29
2023-02-27T03:50:25.204Z,4.27
2023-02-27T03:51:28.808Z,4.28
2023-02-27T03:52:31.621Z,4.30
2023-02-27T03:53:46.048Z,4.29
2023-02-27T03:55:03.194Z,4.27
2023-02-27T03:56:09.163Z,4.25
2023-02-27T03:57:13.370Z,4.24
2023-02-27T03:58:15.363Z,4.23
2023-02-27T03:59:17.378Z,4.24
2023-02-27T04:00:25.164Z,4.26
2023-02-27T04:01:27.537Z,4.25
2023-02-27T04:02:29.989Z,4.25
2023-02-27T04:03:39.294Z,4.27
2023-02-27T04:04:41.219Z,4.24
2023-02-27T04:05:43.123Z,4.22
2023-02-27T04:07:23.139Z,4.24
2023-02-27T04:09:03.199Z,4.21
2023-02-27T04:10:23.618Z,4.19
2023-02-27T04:12:10.202Z,4.19
2023-02-27T04:13:23.831Z,4.14
2023-02-27T04:14:54.271Z,4.15
2023-02-27T04:16:31.196Z,4.12
2023-02-27T04:17:56.560Z,4.11
2023-02-27T04:19:31.648Z,4.12
2023-02-27T04:20:48.400Z,4.11
2023-02-27T04:21:55.988Z,4.09
2023-02-27T04:23:12.302Z,4.10
2023-02-27T04:24:23.042Z,4.10
2023-02-27T04:25:44.492Z,4.11
2023-02-27T04:27:04.811Z,4.10
2023-02-27T04:28:10.314Z,4.05
2023-02-27T04:29:33.210Z,4.10
2023-02-27T04:30:53.475Z,4.09
2023-02-27T04:32:07.080Z,4.08
2023-02-27T04:33:42.633Z,4.08
2023-02-27T04:34:54.753Z,4.06
2023-02-27T04:36:06.896Z,4.06
2023-02-27T04:37:35.712Z,4.03
2023-02-27T04:38:53.569Z,4.00
2023-02-27T04:40:09.208Z,4.01
2023-02-27T04:41:23.407Z,4.01
2023-02-27T04:42:34.785Z,4.02
2023-02-27T04:43:40.031Z,4.02
2023-02-27T04:44:44.689Z,4.02
2023-02-27T04:45:49.447Z,4.04
2023-02-27T04:46:54.162Z,4.03
2023-02-27T04:48:20.120Z,4.05
2023-02-27T04:49:28.149Z,4.03
2023-02-27T04:50:51.751Z,4.03
2023-02-27T04:52:02.582Z,4.02
2023-02-27T04:53:22.221Z,4.03
2023-02-27T04:54:51.882Z,4.03
2023-02-27T04:56:11.155Z,4.01
2023-02-27T04:57:22.604Z,3.99
2023-02-27T04:58:33.362Z,4.01
2023-02-27T04:59:43.118Z,4.03
2023-02-27T05:00:55.168Z,4.01
2023-02-27T05:02:16.103Z,4.00
2023-02-27T05:03:30.535Z,4.01
2023-02-27T05:04:38.362Z,4.00
2023-02-27T05:05:45.860Z,3.99
2023-02-27T05:06:51.040Z,3.96
2023-02-27T05:08:01.861Z,3.97
2023-02-27T05:09:22.518Z,3.99
2023-02-27T05:10:43.310Z,3.97
2023-02-27T05:11:56.328Z,3.96
2023-02-27T05:13:09.217Z,3.94
2023-02-27T05:14:41.849Z,3.93
2023-02-27T05:15:55.754Z,3.92
2023-02-27T05:17:28.950Z,3.93
2023-02-27T05:18:31.308Z,3.89
2023-02-27T05:19:37.233Z,3.89
2023-02-27T05:21:29.354Z,3.94
2023-02-27T05:22:40.871Z,3.92
2023-02-27T05:24:09.816Z,3.89
2023-02-27T05:25:37.360Z,3.90
2023-02-27T05:27:18.201Z,3.89
2023-02-27T05:28:33.258Z,3.88
2023-02-27T05:29:46.909Z,3.88
2023-02-27T05:31:12.635Z,3.91
2023-02-27T05:32:29.353Z,3.89
2023-02-27T05:34:00.220Z,3.92
2023-02-27T05:35:12.578Z,3.91
2023-02-27T05:36:46.689Z,3.93
2023-02-27T05:38:19.550Z,3.93
2023-02-27T05:39:25.447Z,3.91
2023-02-27T05:40:36.493Z,3.93
2023-02-27T05:41:50.242Z,3.94
2023-02-27T05:43:10.842Z,3.93
2023-02-27T05:44:30.358Z,3.93
2023-02-27T05:45:36.690Z,3.92
2023-02-27T05:46:46.223Z,3.95
2023-02-27T05:47:58.191Z,3.94
2023-02-27T05:49:09.660Z,3.94
2023-02-27T05:50:26.364Z,3.96
2023-02-27T05:51:34.384Z,3.94
2023-02-27T05:52:39.099Z,3.94
2023-02-27T05:53:50.996Z,3.93
2023-02-27T05:55:00.516Z,3.91
2023-02-27T05:56:06.722Z,3.92
2023-02-27T05:57:16.556Z,3.95
2023-02-27T05:58:45.616Z,3.94
2023-02-27T06:00:17.425Z,3.94
2023-02-27T06:01:19.223Z,3.90
2023-02-27T06:02:21.123Z,3.90
2023-02-27T06:03:23.569Z,3.93
2023-02-27T06:04:25.418Z,3.92
2023-02-27T06:05:28.242Z,3.92
2023-02-27T06:06:31.157Z,3.93
2023-02-27T06:07:34.985Z,3.95
2023-02-27T06:08:37.502Z,3.97
2023-02-27T06:09:39.437Z,3.96
2023-02-27T06:10:41.162Z,3.93
2023-02-27T06:11:42.977Z,3.95
2023-02-27T06:12:45.330Z,3.96
2023-02-27T06:13:47.135Z,3.96
2023-02-27T06:14:48.872Z,3.95
2023-02-27T06:15:50.907Z,3.96
2023-02-27T06:16:52.673Z,3.95
2023-02-27T06:17:54.727Z,3.99
2023-02-27T06:18:56.540Z,3.95
2023-02-27T06:19:58.309Z,3.97
2023-02-27T06:21:00.348Z,3.95
2023-02-27T06:22:02.132Z,3.94
2023-02-27T06:23:03.893Z,3.98
2023-02-27T06:24:05.964Z,3.99
2023-02-27T06:25:08.552Z,3.97
2023-02-27T06:26:14.088Z,3.98
2023-02-27T06:27:15.826Z,3.98
2023-02-27T06:28:17.624Z,3.99
2023-02-27T06:29:19.474Z,4.02
2023-02-27T06:30:21.338Z,4.03
2023-02-27T06:31:23.149Z,4.01
2023-02-27T06:32:25.764Z,4.07
2023-02-27T06:33:27.666Z,4.05
2023-02-27T06:34:29.451Z,4.05
2023-02-27T06:35:31.778Z,4.05
2023-02-27T06:36:33.662Z,4.04
2023-02-27T06:37:35.717Z,4.07
2023-02-27T06:38:37.505Z,4.07
2023-02-27T06:39:39.238Z,4.09
2023-02-27T06:40:41.055Z,4.10
2023-02-27T06:41:42.804Z,4.08
2023-02-27T06:42:45.409Z,4.09
2023-02-27T06:43:47.310Z,4.10
2023-02-27T06:44:49.157Z,4.11
2023-02-27T06:45:54.785Z,4.15
2023-02-27T06:46:56.622Z,4.15
2023-02-27T06:47:58.405Z,4.15
2023-02-27T06:49:00.233Z,4.17
2023-02-27T06:50:02.484Z,4.16
2023-02-27T06:51:04.866Z,4.18
2023-02-27T06:52:06.819Z,4.23
2023-02-27T06:53:08.662Z,4.24
2023-02-27T06:54:10.491Z,4.26
2023-02-27T06:55:12.592Z,4.28
2023-02-27T06:56:14.424Z,4.30
2023-02-27T06:57:16.177Z,4.33
2023-02-27T06:58:18.557Z,4.33
2023-02-27T06:59:20.317Z,4.36
2023-02-27T07:00:22.716Z,4.39
2023-02-27T07:01:26.228Z,4.39
2023-02-27T07:02:27.993Z,4.41
2023-02-27T07:03:29.712Z,4.44
2023-02-27T07:04:31.477Z,4.44
2023-02-27T07:05:33.545Z,4.41
2023-02-27T07:07:33.394Z,4.44
2023-02-27T07:07:58.720Z,4.48
2023-02-27T07:09:06.564Z,4.48
2023-02-27T07:10:13.278Z,4.51
2023-02-27T07:11:15.053Z,4.54
2023-02-27T07:12:16.816Z,4.57
2023-02-27T07:13:19.798Z,4.60
2023-02-27T07:14:22.494Z,4.64
2023-02-27T07:15:24.528Z,4.67
2023-02-27T07:16:26.619Z,4.69
2023-02-27T07:17:28.596Z,4.71
2023-02-27T07:18:30.788Z,4.73
2023-02-27T07:19:35.786Z,4.78
2023-02-27T07:20:37.589Z,4.82
2023-02-27T07:21:39.752Z,4.84
2023-02-27T07:22:41.911Z,4.86
2023-02-27T07:23:44.283Z,4.90
2023-02-27T07:24:46.004Z,4.93
2023-02-27T07:25:48.670Z,4.94
2023-02-27T07:26:50.496Z,4.99
2023-02-27T07:27:52.233Z,5.01
2023-02-27T07:28:54.748Z,5.05
2023-02-27T07:29:56.532Z,5.07
2023-02-27T07:30:58.345Z,5.15
2023-02-27T07:32:01.497Z,5.18
2023-02-27T07:33:03.499Z,5.23
2023-02-27T07:34:05.218Z,5.26
2023-02-27T07:35:08.569Z,5.30
2023-02-27T07:36:10.577Z,5.32
2023-02-27T07:37:12.976Z,5.37
2023-02-27T07:38:14.737Z,5.41
2023-02-27T07:39:16.542Z,5.46
2023-02-27T07:40:18.752Z,5.47
2023-02-27T07:41:30.068Z,5.51
2023-02-27T07:42:32.669Z,5.55
2023-02-27T07:43:34.548Z,5.59
2023-02-27T07:44:36.466Z,5.64
2023-02-27T07:45:38.393Z,5.64
2023-02-27T07:46:40.266Z,5.68
2023-02-27T07:47:42.212Z,5.72
2023-02-27T07:48:43.944Z,5.77
2023-02-27T07:49:45.783Z,5.82
2023-02-27T07:50:47.539Z,5.88
2023-02-27T07:51:49.323Z,5.90
2023-02-27T07:52:52.333Z,5.93
2023-02-27T07:53:56.504Z,6.00
2023-02-27T07:54:58.355Z,6.02
2023-02-27T07:56:00.214Z,6.07
2023-02-27T07:57:02.006Z,6.10
2023-02-27T07:58:03.770Z,6.19
2023-02-27T07:59:05.555Z,6.24
2023-02-27T08:00:09.897Z,6.27
2023-02-27T08:01:11.699Z,6.34
2023-02-27T08:02:13.434Z,6.39
2023-02-27T08:03:15.423Z,6.47
2023-02-27T08:04:17.271Z,6.51
2023-02-27T08:05:19.071Z,6.59
2023-02-27T08:06:21.308Z,6.63
2023-02-27T08:07:23.050Z,6.67
2023-02-27T08:08:24.834Z,6.77
2023-02-27T08:09:26.698Z,6.79
2023-02-27T08:10:29.093Z,6.87
2023-02-27T08:11:30.911Z,6.93
2023-02-27T08:12:32.957Z,6.96
2023-02-27T08:14:56.600Z,7.07
2023-02-27T08:15:58.395Z,7.12
2023-02-27T08:17:00.576Z,7.15
2023-02-27T08:18:02.477Z,7.21
2023-02-27T08:19:04.441Z,7.30
2023-02-27T08:20:07.465Z,7.35
2023-02-27T08:21:09.241Z,7.41
2023-02-27T08:22:12.257Z,7.46
2023-02-27T08:23:14.023Z,7.51
2023-02-27T08:24:15.834Z,7.55
2023-02-27T08:25:17.996Z,7.64
2023-02-27T08:26:20.911Z,7.69
2023-02-27T08:27:22.860Z,7.73
2023-02-27T08:28:25.354Z,7.80
2023-02-27T08:29:27.955Z,7.81
2023-02-27T08:30:29.856Z,7.84
2023-02-27T08:31:31.977Z,7.92
2023-02-27T08:32:34.399Z,7.97
2023-02-27T08:33:36.438Z,8.02
2023-02-27T08:34:38.324Z,8.07
2023-02-27T08:35:40.176Z,8.11
2023-02-27T08:36:42.485Z,8.16
2023-02-27T08:37:44.191Z,8.23
2023-02-27T08:38:45.961Z,8.28
2023-02-27T08:39:47.708Z,8.31
2023-02-27T08:40:53.431Z,8.36
2023-02-27T08:41:55.306Z,8.42
2023-02-27T08:42:57.069Z,8.46
2023-02-27T08:43:58.933Z,8.53
2023-02-27T08:45:00.976Z,8.57
2023-02-27T08:46:02.795Z,8.61
2023-02-27T08:47:04.817Z,8.66
2023-02-27T08:48:07.110Z,8.71
2023-02-27T08:49:08.877Z,8.76
2023-02-27T08:50:12.449Z,8.83
2023-02-27T08:51:14.181Z,8.89
2023-02-27T08:52:16.047Z,8.95
2023-02-27T08:53:17.823Z,9.01
2023-02-27T08:54:20.576Z,9.07
2023-02-27T08:55:22.446Z,9.11
2023-02-27T08:56:28.877Z,9.18
2023-02-27T08:57:30.976Z,9.22
2023-02-27T08:58:32.963Z,9.26
2023-02-27T08:59:34.780Z,9.35
2023-02-27T09:00:36.661Z,9.39
2023-02-27T09:01:38.434Z,9.48
2023-02-27T09:02:40.967Z,9.53
2023-02-27T09:03:42.758Z,9.60
2023-02-27T09:04:44.528Z,9.67
2023-02-27T09:05:49.317Z,9.71
2023-02-27T09:06:51.130Z,9.74
2023-02-27T09:07:53.088Z,9.81
2023-02-27T09:08:56.166Z,9.86
2023-02-27T09:09:57.966Z,9.91
2023-02-27T09:10:59.765Z,9.98
2023-02-27T09:12:01.529Z,10.02
2023-02-27T09:13:03.406Z,10.08
2023-02-27T09:14:05.485Z,10.14
2023-02-27T09:15:08.936Z,10.22
2023-02-27T09:16:10.678Z,10.27
2023-02-27T09:17:12.462Z,10.29
2023-02-27T09:18:14.247Z,10.39
2023-02-27T09:19:16.041Z,10.45
2023-02-27T09:20:18.009Z,10.52
2023-02-27T09:21:20.589Z,10.57
2023-02-27T09:22:22.494Z,10.64
2023-02-27T09:23:24.353Z,10.68
2023-02-27T09:24:26.288Z,10.77
2023-02-27T09:25:29.210Z,10.84
2023-02-27T09:26:42.212Z,10.95
2023-02-27T09:27:46.850Z,11.11
2023-02-27T09:28:49.528Z,11.21
2023-02-27T09:29:56.253Z,11.35
2023-02-27T09:31:06.294Z,11.61
2023-02-27T09:32:08.751Z,11.81
2023-02-27T09:33:10.601Z,12.07
2023-02-27T09:34:12.383Z,12.40
2023-02-27T09:35:15.825Z,12.91
2023-02-27T09:36:17.726Z,13.75
2023-02-27T09:37:19.945Z,14.58
2023-02-27T09:38:21.747Z,15.37
2023-02-27T09:39:23.491Z,16.09
2023-02-27T09:40:32.870Z,16.97
2023-02-27T09:42:00.685Z,18.08
2023-02-27T09:43:23.714Z,18.76
2023-02-27T09:44:46.175Z,19.61
2023-02-27T09:45:55.166Z,20.46
2023-02-27T09:46:57.731Z,21.00
2023-02-27T09:48:15.324Z,21.79
2023-02-27T09:49:23.707Z,22.37
2023-02-27T09:50:42.300Z,23.14
2023-02-27T09:51:44.122Z,23.53
2023-02-27T09:52:46.046Z,23.80
2023-02-27T09:53:52.230Z,24.29
2023-02-27T09:54:55.174Z,24.63
2023-02-27T09:56:23.906Z,25.25
2023-02-27T09:57:44.814Z,25.63
2023-02-27T09:59:53.613Z,26.11
2023-02-27T10:01:18.861Z,26.57
2023-02-27T10:02:23.663Z,26.94
2023-02-27T10:03:43.286Z,27.37
2023-02-27T10:05:18.015Z,27.83
2023-02-27T10:06:37.270Z,28.17
2023-02-27T10:08:12.391Z,28.52
2023-02-27T10:09:58.089Z,29.06
2023-02-27T10:11:12.941Z,29.15
2023-02-27T10:12:20.953Z,29.18
2023-02-27T10:13:41.955Z,29.19
2023-02-27T10:14:53.650Z,29.29
2023-02-27T10:15:57.861Z,29.30
2023-02-27T10:17:05.997Z,29.43
2023-02-27T10:18:25.561Z,29.41
2023-02-27T10:19:36.341Z,29.38
2023-02-27T10:20:46.909Z,29.39
2023-02-27T10:21:53.760Z,29.48
2023-02-27T10:23:01.647Z,29.52
2023-02-27T10:24:15.005Z,29.63
2023-02-27T10:25:31.172Z,29.62
2023-02-27T10:26:41.673Z,29.77
2023-02-27T10:27:53.378Z,29.91
2023-02-27T10:28:55.159Z,29.68
2023-02-27T10:30:30.401Z,29.89
2023-02-27T10:31:35.895Z,29.87
2023-02-27T10:32:40.030Z,29.74
2023-02-27T10:33:44.780Z,29.30
2023-02-27T10:35:09.314Z,29.22
2023-02-27T10:36:20.609Z,29.13
2023-02-27T10:37:30.103Z,29.21
2023-02-27T10:38:39.060Z,29.03
2023-02-27T10:39:55.094Z,28.94
2023-02-27T10:41:00.304Z,28.78
2023-02-27T10:42:10.766Z,28.73
2023-02-27T10:43:19.409Z,28.66
2023-02-27T10:44:21.374Z,28.69
2023-02-27T10:45:23.275Z,28.73
2023-02-27T10:46:32.102Z,28.90
2023-02-27T10:47:34.138Z,28.87
2023-02-27T10:48:36.397Z,28.80
2023-02-27T10:49:39.444Z,28.76
2023-02-27T10:50:45.426Z,28.93
2023-02-27T10:52:10.717Z,29.27
2023-02-27T10:53:27.847Z,29.44
2023-02-27T10:54:29.592Z,29.50
2023-02-27T10:55:36.250Z,29.65
2023-02-27T10:56:39.392Z,29.68
2023-02-27T10:57:43.130Z,29.84
2023-02-27T10:58:45.637Z,29.92
2023-02-27T11:00:28.208Z,30.35
2023-02-27T11:01:48.764Z,30.57
2023-02-27T11:02:52.303Z,30.64
2023-02-27T11:03:56.810Z,30.84
2023-02-27T11:05:00.403Z,31.08
2023-02-27T11:06:14.099Z,31.30
2023-02-27T11:07:25.851Z,31.26
2023-02-27T11:08:32.230Z,31.35
2023-02-27T11:09:36.197Z,31.38
2023-02-27T11:10:53.648Z,31.40
2023-02-27T11:12:11.585Z,31.14
2023-02-27T11:13:21.998Z,31.10
2023-02-27T11:14:33.017Z,31.11
2023-02-27T11:15:38.466Z,31.09
2023-02-27T11:16:52.826Z,31.23
2023-02-27T11:17:55.062Z,31.26
2023-02-27T11:18:57.907Z,31.20
2023-02-27T11:20:05.995Z,31.22
2023-02-27T11:21:27.089Z,31.31
2023-02-27T11:22:31.991Z,31.21
2023-02-27T11:23:34.408Z,31.12
2023-02-27T11:24:36.251Z,31.15
2023-02-27T11:25:38.098Z,31.11
2023-02-27T11:26:55.332Z,31.09
2023-02-27T11:28:30.744Z,30.79
2023-02-27T11:29:34.565Z,30.50
2023-02-27T11:30:36.320Z,30.24
2023-02-27T11:31:39.810Z,30.15
2023-02-27T11:32:51.228Z,30.16
2023-02-27T11:33:57.716Z,30.19
2023-02-27T11:34:59.677Z,30.22
2023-02-27T11:36:03.891Z,30.31
2023-02-27T11:37:36.844Z,30.53
2023-02-27T11:38:38.625Z,30.41
2023-02-27T11:39:58.429Z,30.50
2023-02-27T11:41:04.398Z,30.30
2023-02-27T11:42:26.147Z,30.28
2023-02-27T11:43:52.057Z,30.34
2023-02-27T11:46:09.911Z,30.39
2023-02-27T11:46:47.776Z,30.48
2023-02-27T11:48:01.219Z,30.59
2023-02-27T11:50:09.820Z,30.84
2023-02-27T11:51:20.044Z,30.72
2023-02-27T11:52:38.060Z,30.76
2023-02-27T11:54:13.540Z,30.67
2023-02-27T11:55:21.756Z,30.50
2023-02-27T11:56:34.127Z,30.26
